sensor_id;sensor_type;location;lat;lon;timestamp;P1;durP1;ratioP1;P2;durP2;ratioP2
73428;SDS011;61643;49.564;17.412;2023-04-01T00:01:41;4.20;;;2.30;;
73428;SDS011;61643;49.564;17.412;2023-04-01T00:04:07;5.07;;;2.75;;
73428;SDS011;61643;49.564;17.412;2023-04-01T00:06:33;3.55;;;2.42;;
73428;SDS011;61643;49.564;17.412;2023-04-01T00:08:59;4.75;;;2.47;;
73428;SDS011;61643;49.564;17.412;2023-04-01T00:11:25;4.30;;;2.70;;
73428;SDS011;61643;49.564;17.412;2023-04-01T00:13:52;4.78;;;2.63;;
73428;SDS011;61643;49.564;17.412;2023-04-01T00:16:18;3.80;;;2.78;;
73428;SDS011;61643;49.564;17.412;2023-04-01T00:18:44;3.70;;;2.40;;
73428;SDS011;61643;49.564;17.412;2023-04-01T00:21:12;5.88;;;2.88;;
73428;SDS011;61643;49.564;17.412;2023-04-01T00:23:39;4.97;;;2.78;;
73428;SDS011;61643;49.564;17.412;2023-04-01T00:26:04;5.47;;;2.60;;
73428;SDS011;61643;49.564;17.412;2023-04-01T00:28:30;4.65;;;2.90;;
73428;SDS011;61643;49.564;17.412;2023-04-01T00:33:28;5.00;;;2.85;;
73428;SDS011;61643;49.564;17.412;2023-04-01T00:35:55;5.07;;;2.97;;
73428;SDS011;61643;49.564;17.412;2023-04-01T00:38:21;6.10;;;2.72;;
73428;SDS011;61643;49.564;17.412;2023-04-01T00:40:48;6.07;;;2.90;;
73428;SDS011;61643;49.564;17.412;2023-04-01T00:43:15;7.50;;;3.15;;
73428;SDS011;61643;49.564;17.412;2023-04-01T00:45:45;5.18;;;2.92;;
73428;SDS011;61643;49.564;17.412;2023-04-01T00:48:17;5.97;;;3.33;;
73428;SDS011;61643;49.564;17.412;2023-04-01T00:50:53;6.50;;;3.30;;
73428;SDS011;61643;49.564;17.412;2023-04-01T00:53:23;6.88;;;3.13;;
73428;SDS011;61643;49.564;17.412;2023-04-01T00:55:51;5.53;;;2.85;;
73428;SDS011;61643;49.564;17.412;2023-04-01T00:58:23;5.10;;;3.30;;
73428;SDS011;61643;49.564;17.412;2023-04-01T01:00:52;4.93;;;2.85;;
73428;SDS011;61643;49.564;17.412;2023-04-01T01:03:20;4.15;;;2.85;;
73428;SDS011;61643;49.564;17.412;2023-04-01T01:09:24;5.00;;;3.03;;
73428;SDS011;61643;49.564;17.412;2023-04-01T01:14:36;4.35;;;2.60;;
73428;SDS011;61643;49.564;17.412;2023-04-01T01:22:32;4.60;;;2.97;;
73428;SDS011;61643;49.564;17.412;2023-04-01T01:28:44;3.80;;;2.60;;
73428;SDS011;61643;49.564;17.412;2023-04-01T01:36:24;5.40;;;2.92;;
73428;SDS011;61643;49.564;17.412;2023-04-01T01:38:55;4.47;;;2.83;;
73428;SDS011;61643;49.564;17.412;2023-04-01T01:41:22;3.70;;;2.90;;
73428;SDS011;61643;49.564;17.412;2023-04-01T01:43:52;5.13;;;2.88;;
73428;SDS011;61643;49.564;17.412;2023-04-01T01:46:22;4.22;;;2.97;;
73428;SDS011;61643;49.564;17.412;2023-04-01T01:48:51;4.57;;;3.17;;
73428;SDS011;61643;49.564;17.412;2023-04-01T01:51:18;5.80;;;3.30;;
73428;SDS011;61643;49.564;17.412;2023-04-01T01:53:46;5.10;;;2.75;;
73428;SDS011;61643;49.564;17.412;2023-04-01T01:56:12;4.50;;;2.78;;
73428;SDS011;61643;49.564;17.412;2023-04-01T01:58:43;4.60;;;3.15;;
73428;SDS011;61643;49.564;17.412;2023-04-01T02:01:16;4.47;;;3.08;;
73428;SDS011;61643;49.564;17.412;2023-04-01T02:03:45;4.97;;;3.03;;
73428;SDS011;61643;49.564;17.412;2023-04-01T02:06:14;5.30;;;3.22;;
73428;SDS011;61643;49.564;17.412;2023-04-01T02:11:32;6.75;;;3.28;;
73428;SDS011;61643;49.564;17.412;2023-04-01T02:19:18;6.70;;;3.92;;
73428;SDS011;61643;49.564;17.412;2023-04-01T02:21:49;5.60;;;3.50;;
73428;SDS011;61643;49.564;17.412;2023-04-01T02:24:18;7.18;;;3.35;;
73428;SDS011;61643;49.564;17.412;2023-04-01T02:26:48;6.07;;;3.38;;
73428;SDS011;61643;49.564;17.412;2023-04-01T02:31:43;6.28;;;3.33;;
73428;SDS011;61643;49.564;17.412;2023-04-01T02:34:09;6.95;;;3.75;;
73428;SDS011;61643;49.564;17.412;2023-04-01T02:36:35;6.78;;;3.60;;
73428;SDS011;61643;49.564;17.412;2023-04-01T02:39:02;7.70;;;3.42;;
73428;SDS011;61643;49.564;17.412;2023-04-01T02:41:30;6.82;;;3.67;;
73428;SDS011;61643;49.564;17.412;2023-04-01T02:43:56;6.00;;;3.13;;
73428;SDS011;61643;49.564;17.412;2023-04-01T02:46:24;6.85;;;3.25;;
73428;SDS011;61643;49.564;17.412;2023-04-01T02:48:50;5.05;;;3.42;;
73428;SDS011;61643;49.564;17.412;2023-04-01T02:51:16;6.60;;;3.17;;
73428;SDS011;61643;49.564;17.412;2023-04-01T02:53:42;6.25;;;3.40;;
73428;SDS011;61643;49.564;17.412;2023-04-01T02:56:08;5.32;;;3.50;;
73428;SDS011;61643;49.564;17.412;2023-04-01T02:58:34;5.05;;;3.17;;
73428;SDS011;61643;49.564;17.412;2023-04-01T03:01:00;6.47;;;3.47;;
73428;SDS011;61643;49.564;17.412;2023-04-01T03:03:26;7.90;;;3.75;;
73428;SDS011;61643;49.564;17.412;2023-04-01T03:05:52;8.75;;;3.45;;
73428;SDS011;61643;49.564;17.412;2023-04-01T03:08:21;4.85;;;3.25;;
73428;SDS011;61643;49.564;17.412;2023-04-01T03:10:47;4.90;;;3.00;;
73428;SDS011;61643;49.564;17.412;2023-04-01T03:13:13;7.65;;;3.35;;
73428;SDS011;61643;49.564;17.412;2023-04-01T03:15:39;5.32;;;3.20;;
73428;SDS011;61643;49.564;17.412;2023-04-01T03:18:05;6.45;;;3.17;;
73428;SDS011;61643;49.564;17.412;2023-04-01T03:20:31;6.25;;;3.33;;
73428;SDS011;61643;49.564;17.412;2023-04-01T03:22:57;5.43;;;3.10;;
73428;SDS011;61643;49.564;17.412;2023-04-01T03:25:23;4.00;;;3.05;;
73428;SDS011;61643;49.564;17.412;2023-04-01T03:27:49;7.93;;;3.13;;
73428;SDS011;61643;49.564;17.412;2023-04-01T03:30:15;4.90;;;2.88;;
73428;SDS011;61643;49.564;17.412;2023-04-01T03:32:41;4.93;;;3.05;;
73428;SDS011;61643;49.564;17.412;2023-04-01T03:35:07;5.22;;;2.92;;
73428;SDS011;61643;49.564;17.412;2023-04-01T03:37:35;5.45;;;3.30;;
73428;SDS011;61643;49.564;17.412;2023-04-01T03:40:01;4.43;;;3.00;;
73428;SDS011;61643;49.564;17.412;2023-04-01T03:42:27;5.35;;;3.03;;
73428;SDS011;61643;49.564;17.412;2023-04-01T03:44:53;4.47;;;2.95;;
73428;SDS011;61643;49.564;17.412;2023-04-01T03:47:19;4.95;;;3.50;;
73428;SDS011;61643;49.564;17.412;2023-04-01T03:49:45;5.35;;;3.60;;
73428;SDS011;61643;49.564;17.412;2023-04-01T03:52:11;7.00;;;3.53;;
73428;SDS011;61643;49.564;17.412;2023-04-01T03:54:37;5.55;;;3.15;;
73428;SDS011;61643;49.564;17.412;2023-04-01T03:57:03;9.30;;;3.47;;
73428;SDS011;61643;49.564;17.412;2023-04-01T03:59:29;4.95;;;3.00;;
73428;SDS011;61643;49.564;17.412;2023-04-01T04:01:55;7.30;;;2.95;;
73428;SDS011;61643;49.564;17.412;2023-04-01T04:04:21;7.97;;;2.67;;
73428;SDS011;61643;49.564;17.412;2023-04-01T04:06:47;4.10;;;1.38;;
73428;SDS011;61643;49.564;17.412;2023-04-01T04:09:13;2.22;;;1.33;;
73428;SDS011;61643;49.564;17.412;2023-04-01T04:11:39;3.95;;;1.40;;
73428;SDS011;61643;49.564;17.412;2023-04-01T04:14:05;3.15;;;1.33;;
73428;SDS011;61643;49.564;17.412;2023-04-01T04:16:31;3.58;;;1.35;;
73428;SDS011;61643;49.564;17.412;2023-04-01T04:18:57;5.05;;;1.63;;
73428;SDS011;61643;49.564;17.412;2023-04-01T04:21:23;2.97;;;1.23;;
73428;SDS011;61643;49.564;17.412;2023-04-01T04:23:49;2.75;;;1.30;;
73428;SDS011;61643;49.564;17.412;2023-04-01T04:26:16;4.32;;;1.33;;
73428;SDS011;61643;49.564;17.412;2023-04-01T04:28:42;2.80;;;0.90;;
73428;SDS011;61643;49.564;17.412;2023-04-01T04:31:08;3.13;;;0.90;;
73428;SDS011;61643;49.564;17.412;2023-04-01T04:33:34;1.20;;;0.90;;
73428;SDS011;61643;49.564;17.412;2023-04-01T04:36:01;3.42;;;1.17;;
73428;SDS011;61643;49.564;17.412;2023-04-01T04:38:28;1.27;;;1.00;;
73428;SDS011;61643;49.564;17.412;2023-04-01T04:40:54;2.22;;;0.90;;
73428;SDS011;61643;49.564;17.412;2023-04-01T04:43:20;1.17;;;1.05;;
73428;SDS011;61643;49.564;17.412;2023-04-01T04:45:46;2.28;;;1.00;;
73428;SDS011;61643;49.564;17.412;2023-04-01T04:48:13;2.83;;;1.27;;
73428;SDS011;61643;49.564;17.412;2023-04-01T04:50:47;4.78;;;1.45;;
73428;SDS011;61643;49.564;17.412;2023-04-01T04:53:15;3.30;;;1.40;;
73428;SDS011;61643;49.564;17.412;2023-04-01T04:55:46;2.67;;;1.20;;
73428;SDS011;61643;49.564;17.412;2023-04-01T04:58:14;2.00;;;1.25;;
73428;SDS011;61643;49.564;17.412;2023-04-01T05:00:40;1.50;;;1.02;;
73428;SDS011;61643;49.564;17.412;2023-04-01T05:03:06;4.75;;;1.10;;
73428;SDS011;61643;49.564;17.412;2023-04-01T05:05:33;2.60;;;1.00;;
73428;SDS011;61643;49.564;17.412;2023-04-01T05:07:59;3.20;;;1.00;;
73428;SDS011;61643;49.564;17.412;2023-04-01T05:10:25;2.40;;;1.05;;
73428;SDS011;61643;49.564;17.412;2023-04-01T05:12:51;2.72;;;1.45;;
73428;SDS011;61643;49.564;17.412;2023-04-01T05:15:17;2.47;;;1.00;;
73428;SDS011;61643;49.564;17.412;2023-04-01T05:17:43;2.10;;;0.90;;
73428;SDS011;61643;49.564;17.412;2023-04-01T05:20:11;1.30;;;0.88;;
73428;SDS011;61643;49.564;17.412;2023-04-01T05:22:38;1.20;;;0.80;;
73428;SDS011;61643;49.564;17.412;2023-04-01T05:25:04;1.67;;;0.80;;
73428;SDS011;61643;49.564;17.412;2023-04-01T05:27:30;0.70;;;0.70;;
73428;SDS011;61643;49.564;17.412;2023-04-01T05:29:57;2.58;;;0.95;;
73428;SDS011;61643;49.564;17.412;2023-04-01T05:32:23;1.13;;;0.80;;
73428;SDS011;61643;49.564;17.412;2023-04-01T05:34:50;1.98;;;0.80;;
73428;SDS011;61643;49.564;17.412;2023-04-01T05:37:17;3.05;;;0.80;;
73428;SDS011;61643;49.564;17.412;2023-04-01T05:39:43;1.42;;;1.00;;
73428;SDS011;61643;49.564;17.412;2023-04-01T05:42:09;2.55;;;0.90;;
73428;SDS011;61643;49.564;17.412;2023-04-01T05:44:35;1.23;;;0.90;;
73428;SDS011;61643;49.564;17.412;2023-04-01T05:47:02;3.85;;;0.90;;
73428;SDS011;61643;49.564;17.412;2023-04-01T05:49:29;1.10;;;0.88;;
73428;SDS011;61643;49.564;17.412;2023-04-01T05:51:55;3.83;;;0.95;;
73428;SDS011;61643;49.564;17.412;2023-04-01T05:54:22;0.95;;;0.73;;
73428;SDS011;61643;49.564;17.412;2023-04-01T05:56:48;1.58;;;0.88;;
73428;SDS011;61643;49.564;17.412;2023-04-01T05:59:14;1.38;;;0.90;;
73428;SDS011;61643;49.564;17.412;2023-04-01T06:01:40;0.90;;;0.85;;
73428;SDS011;61643;49.564;17.412;2023-04-01T06:04:06;2.78;;;1.00;;
73428;SDS011;61643;49.564;17.412;2023-04-01T06:06:32;4.38;;;2.20;;
73428;SDS011;61643;49.564;17.412;2023-04-01T06:09:01;5.95;;;2.88;;
73428;SDS011;61643;49.564;17.412;2023-04-01T06:19:50;6.20;;;2.38;;
73428;SDS011;61643;49.564;17.412;2023-04-01T06:53:16;5.38;;;2.33;;
73428;SDS011;61643;49.564;17.412;2023-04-01T06:55:57;7.88;;;2.70;;
73428;SDS011;61643;49.564;17.412;2023-04-01T06:58:50;5.68;;;2.38;;
73428;SDS011;61643;49.564;17.412;2023-04-01T07:03:57;3.28;;;1.90;;
73428;SDS011;61643;49.564;17.412;2023-04-01T07:06:28;4.15;;;2.17;;
73428;SDS011;61643;49.564;17.412;2023-04-01T07:08:58;5.40;;;2.15;;
73428;SDS011;61643;49.564;17.412;2023-04-01T07:11:31;3.55;;;1.98;;
73428;SDS011;61643;49.564;17.412;2023-04-01T07:14:04;7.68;;;3.75;;
73428;SDS011;61643;49.564;17.412;2023-04-01T07:16:40;18.73;;;7.18;;
73428;SDS011;61643;49.564;17.412;2023-04-01T07:22:18;8.55;;;4.32;;
73428;SDS011;61643;49.564;17.412;2023-04-01T07:24:57;4.03;;;2.60;;
73428;SDS011;61643;49.564;17.412;2023-04-01T07:27:30;4.30;;;2.30;;
73428;SDS011;61643;49.564;17.412;2023-04-01T07:29:57;4.68;;;2.00;;
73428;SDS011;61643;49.564;17.412;2023-04-01T07:32:35;6.45;;;2.70;;
73428;SDS011;61643;49.564;17.412;2023-04-01T07:35:13;4.88;;;2.65;;
73428;SDS011;61643;49.564;17.412;2023-04-01T07:40:45;1.90;;;1.08;;
73428;SDS011;61643;49.564;17.412;2023-04-01T07:54:29;1.38;;;0.95;;
73428;SDS011;61643;49.564;17.412;2023-04-01T07:59:58;2.58;;;0.70;;
73428;SDS011;61643;49.564;17.412;2023-04-01T08:05:14;16.05;;;7.93;;
73428;SDS011;61643;49.564;17.412;2023-04-01T08:07:57;5.32;;;3.08;;
73428;SDS011;61643;49.564;17.412;2023-04-01T08:10:54;2.78;;;1.45;;
73428;SDS011;61643;49.564;17.412;2023-04-01T08:16:19;32.70;;;17.35;;
73428;SDS011;61643;49.564;17.412;2023-04-01T08:21:47;1.95;;;0.60;;
73428;SDS011;61643;49.564;17.412;2023-04-01T08:27:09;3.53;;;1.23;;
73428;SDS011;61643;49.564;17.412;2023-04-01T08:30:24;2.25;;;0.88;;
73428;SDS011;61643;49.564;17.412;2023-04-01T08:32:53;1.98;;;0.80;;
73428;SDS011;61643;49.564;17.412;2023-04-01T08:35:38;5.68;;;1.00;;
73428;SDS011;61643;49.564;17.412;2023-04-01T08:38:12;1.45;;;0.70;;
73428;SDS011;61643;49.564;17.412;2023-04-01T08:40:52;6.95;;;1.27;;
73428;SDS011;61643;49.564;17.412;2023-04-01T08:43:45;6.22;;;2.85;;
73428;SDS011;61643;49.564;17.412;2023-04-01T08:51:46;2.30;;;1.40;;
73428;SDS011;61643;49.564;17.412;2023-04-01T09:00:43;2.72;;;1.70;;
73428;SDS011;61643;49.564;17.412;2023-04-01T09:05:43;4.93;;;1.70;;
73428;SDS011;61643;49.564;17.412;2023-04-01T09:27:57;1.75;;;0.65;;
73428;SDS011;61643;49.564;17.412;2023-04-01T09:30:38;1.52;;;0.70;;
73428;SDS011;61643;49.564;17.412;2023-04-01T09:33:37;2.13;;;0.82;;
73428;SDS011;61643;49.564;17.412;2023-04-01T09:49:57;5.60;;;2.50;;
73428;SDS011;61643;49.564;17.412;2023-04-01T09:55:29;5.20;;;3.60;;
73428;SDS011;61643;49.564;17.412;2023-04-01T10:15:05;4.30;;;1.17;;
73428;SDS011;61643;49.564;17.412;2023-04-01T11:19:19;2.15;;;0.55;;
73428;SDS011;61643;49.564;17.412;2023-04-01T11:33:30;1.77;;;0.93;;
73428;SDS011;61643;49.564;17.412;2023-04-01T11:36:08;2.38;;;1.10;;
73428;SDS011;61643;49.564;17.412;2023-04-01T11:38:51;0.98;;;0.80;;
73428;SDS011;61643;49.564;17.412;2023-04-01T11:41:38;3.05;;;0.82;;
73428;SDS011;61643;49.564;17.412;2023-04-01T11:49:42;2.47;;;1.35;;
73428;SDS011;61643;49.564;17.412;2023-04-01T11:52:22;2.55;;;1.20;;
73428;SDS011;61643;49.564;17.412;2023-04-01T12:11:42;6.50;;;3.25;;
73428;SDS011;61643;49.564;17.412;2023-04-01T12:17:24;2.75;;;1.58;;
73428;SDS011;61643;49.564;17.412;2023-04-01T12:20:05;1.70;;;1.45;;
73428;SDS011;61643;49.564;17.412;2023-04-01T12:22:46;1.38;;;0.77;;
73428;SDS011;61643;49.564;17.412;2023-04-01T12:25:27;2.63;;;0.90;;
73428;SDS011;61643;49.564;17.412;2023-04-01T12:28:58;3.10;;;0.98;;
73428;SDS011;61643;49.564;17.412;2023-04-01T12:56:03;1.92;;;1.00;;
73428;SDS011;61643;49.564;17.412;2023-04-01T12:59:28;12.18;;;5.80;;
73428;SDS011;61643;49.564;17.412;2023-04-01T13:01:30;4.00;;;1.80;;
73428;SDS011;61643;49.564;17.412;2023-04-01T13:12:30;3.72;;;1.33;;
73428;SDS011;61643;49.564;17.412;2023-04-01T13:26:22;3.00;;;0.90;;
73428;SDS011;61643;49.564;17.412;2023-04-01T13:29:14;1.20;;;0.88;;
73428;SDS011;61643;49.564;17.412;2023-04-01T13:32:02;2.22;;;0.80;;
73428;SDS011;61643;49.564;17.412;2023-04-01T13:40:21;1.80;;;0.90;;
73428;SDS011;61643;49.564;17.412;2023-04-01T13:42:58;0.93;;;0.70;;
73428;SDS011;61643;49.564;17.412;2023-04-01T14:10:14;6.07;;;3.78;;
73428;SDS011;61643;49.564;17.412;2023-04-01T14:12:57;8.68;;;4.45;;
73428;SDS011;61643;49.564;17.412;2023-04-01T14:21:06;2.63;;;2.22;;
73428;SDS011;61643;49.564;17.412;2023-04-01T14:29:31;2.13;;;1.42;;
73428;SDS011;61643;49.564;17.412;2023-04-01T14:32:28;6.63;;;3.42;;
73428;SDS011;61643;49.564;17.412;2023-04-01T14:41:02;0.88;;;0.60;;
73428;SDS011;61643;49.564;17.412;2023-04-01T14:49:35;1.58;;;1.05;;
73428;SDS011;61643;49.564;17.412;2023-04-01T14:52:26;1.75;;;0.70;;
73428;SDS011;61643;49.564;17.412;2023-04-01T14:54:53;1.45;;;0.82;;
73428;SDS011;61643;49.564;17.412;2023-04-01T14:57:24;2.25;;;1.48;;
73428;SDS011;61643;49.564;17.412;2023-04-01T15:00:13;2.30;;;1.45;;
73428;SDS011;61643;49.564;17.412;2023-04-01T15:18:56;3.20;;;1.90;;
73428;SDS011;61643;49.564;17.412;2023-04-01T15:29:53;2.30;;;1.55;;
73428;SDS011;61643;49.564;17.412;2023-04-01T15:38:05;5.00;;;1.85;;
73428;SDS011;61643;49.564;17.412;2023-04-01T15:46:30;3.45;;;1.40;;
73428;SDS011;61643;49.564;17.412;2023-04-01T15:51:58;1.10;;;1.00;;
73428;SDS011;61643;49.564;17.412;2023-04-01T15:57:18;2.42;;;1.02;;
73428;SDS011;61643;49.564;17.412;2023-04-01T16:00:00;6.00;;;1.73;;
73428;SDS011;61643;49.564;17.412;2023-04-01T16:02:49;19.10;;;7.97;;
73428;SDS011;61643;49.564;17.412;2023-04-01T16:05:26;32.85;;;13.60;;
73428;SDS011;61643;49.564;17.412;2023-04-01T16:11:43;30.52;;;12.75;;
73428;SDS011;61643;49.564;17.412;2023-04-01T16:14:21;6.95;;;3.78;;
73428;SDS011;61643;49.564;17.412;2023-04-01T16:20:20;10.10;;;4.55;;
73428;SDS011;61643;49.564;17.412;2023-04-01T16:25:41;20.70;;;8.93;;
73428;SDS011;61643;49.564;17.412;2023-04-01T16:28:15;8.13;;;4.40;;
73428;SDS011;61643;49.564;17.412;2023-04-01T16:33:52;12.68;;;6.00;;
73428;SDS011;61643;49.564;17.412;2023-04-01T16:36:45;12.30;;;6.15;;
73428;SDS011;61643;49.564;17.412;2023-04-01T16:39:30;5.75;;;3.22;;
73428;SDS011;61643;49.564;17.412;2023-04-01T16:44:32;8.40;;;4.32;;
73428;SDS011;61643;49.564;17.412;2023-04-01T16:47:50;10.18;;;4.93;;
73428;SDS011;61643;49.564;17.412;2023-04-01T16:50:22;8.30;;;5.35;;
73428;SDS011;61643;49.564;17.412;2023-04-01T16:55:33;7.70;;;4.15;;
73428;SDS011;61643;49.564;17.412;2023-04-01T17:03:46;10.75;;;5.07;;
73428;SDS011;61643;49.564;17.412;2023-04-01T17:23:36;7.35;;;4.28;;
73428;SDS011;61643;49.564;17.412;2023-04-01T17:28:58;10.93;;;6.20;;
73428;SDS011;61643;49.564;17.412;2023-04-01T17:34:28;11.80;;;7.38;;
73428;SDS011;61643;49.564;17.412;2023-04-01T17:56:53;9.05;;;5.43;;
73428;SDS011;61643;49.564;17.412;2023-04-01T17:59:39;9.50;;;5.78;;
73428;SDS011;61643;49.564;17.412;2023-04-01T18:02:22;15.63;;;8.07;;
73428;SDS011;61643;49.564;17.412;2023-04-01T18:04:59;10.35;;;5.45;;
73428;SDS011;61643;49.564;17.412;2023-04-01T18:10:17;17.40;;;8.63;;
73428;SDS011;61643;49.564;17.412;2023-04-01T18:15:58;22.13;;;10.40;;
73428;SDS011;61643;49.564;17.412;2023-04-01T18:24:19;33.38;;;14.32;;
73428;SDS011;61643;49.564;17.412;2023-04-01T18:27:03;26.00;;;13.85;;
73428;SDS011;61643;49.564;17.412;2023-04-01T18:29:54;26.25;;;12.93;;
73428;SDS011;61643;49.564;17.412;2023-04-01T18:32:31;23.45;;;12.40;;
73428;SDS011;61643;49.564;17.412;2023-04-01T18:35:08;18.45;;;11.15;;
73428;SDS011;61643;49.564;17.412;2023-04-01T18:40:34;17.17;;;8.55;;
73428;SDS011;61643;49.564;17.412;2023-04-01T18:46:12;14.15;;;5.57;;
73428;SDS011;61643;49.564;17.412;2023-04-01T18:51:47;9.45;;;4.43;;
73428;SDS011;61643;49.564;17.412;2023-04-01T18:54:24;9.60;;;4.63;;
73428;SDS011;61643;49.564;17.412;2023-04-01T18:59:41;13.98;;;6.78;;
73428;SDS011;61643;49.564;17.412;2023-04-01T19:04:47;8.02;;;3.55;;
73428;SDS011;61643;49.564;17.412;2023-04-01T19:57:26;13.40;;;7.07;;
73428;SDS011;61643;49.564;17.412;2023-04-01T20:02:39;15.68;;;7.68;;
73428;SDS011;61643;49.564;17.412;2023-04-01T20:11:11;45.38;;;20.15;;
73428;SDS011;61643;49.564;17.412;2023-04-01T20:16:53;34.90;;;15.48;;
73428;SDS011;61643;49.564;17.412;2023-04-01T20:19:25;32.05;;;13.80;;
73428;SDS011;61643;49.564;17.412;2023-04-01T20:21:56;24.20;;;10.65;;
73428;SDS011;61643;49.564;17.412;2023-04-01T20:24:41;16.30;;;6.50;;
73428;SDS011;61643;49.564;17.412;2023-04-01T20:32:23;13.88;;;6.53;;
73428;SDS011;61643;49.564;17.412;2023-04-01T20:35:18;10.45;;;5.22;;
73428;SDS011;61643;49.564;17.412;2023-04-01T20:40:32;10.45;;;5.80;;
73428;SDS011;61643;49.564;17.412;2023-04-01T20:43:07;12.15;;;6.10;;
73428;SDS011;61643;49.564;17.412;2023-04-01T20:48:34;10.38;;;5.60;;
73428;SDS011;61643;49.564;17.412;2023-04-01T20:51:22;9.27;;;5.88;;
73428;SDS011;61643;49.564;17.412;2023-04-01T20:56:39;12.02;;;6.00;;
73428;SDS011;61643;49.564;17.412;2023-04-01T21:01:53;15.05;;;8.07;;
73428;SDS011;61643;49.564;17.412;2023-04-01T21:12:56;5.07;;;2.50;;
73428;SDS011;61643;49.564;17.412;2023-04-01T21:21:17;6.10;;;2.83;;
73428;SDS011;61643;49.564;17.412;2023-04-01T21:23:58;5.55;;;3.08;;
73428;SDS011;61643;49.564;17.412;2023-04-01T21:32:24;12.15;;;6.00;;
73428;SDS011;61643;49.564;17.412;2023-04-01T21:40:35;12.32;;;6.65;;
73428;SDS011;61643;49.564;17.412;2023-04-01T22:02:07;20.92;;;9.38;;
73428;SDS011;61643;49.564;17.412;2023-04-01T22:05:05;19.80;;;9.98;;
73428;SDS011;61643;49.564;17.412;2023-04-01T22:07:47;19.70;;;9.73;;
73428;SDS011;61643;49.564;17.412;2023-04-01T22:18:44;5.90;;;3.75;;
73428;SDS011;61643;49.564;17.412;2023-04-01T22:22:06;8.00;;;4.40;;
73428;SDS011;61643;49.564;17.412;2023-04-01T22:24:40;9.07;;;4.53;;
73428;SDS011;61643;49.564;17.412;2023-04-01T22:27:37;7.32;;;3.60;;
73428;SDS011;61643;49.564;17.412;2023-04-01T22:38:40;9.55;;;3.72;;
73428;SDS011;61643;49.564;17.412;2023-04-01T22:44:07;9.38;;;5.40;;
73428;SDS011;61643;49.564;17.412;2023-04-01T22:46:51;10.23;;;6.00;;
73428;SDS011;61643;49.564;17.412;2023-04-01T22:49:29;10.45;;;6.40;;
73428;SDS011;61643;49.564;17.412;2023-04-01T22:52:09;13.00;;;6.05;;
73428;SDS011;61643;49.564;17.412;2023-04-01T22:54:52;10.68;;;5.68;;
73428;SDS011;61643;49.564;17.412;2023-04-01T22:57:37;8.02;;;4.80;;
73428;SDS011;61643;49.564;17.412;2023-04-01T23:00:51;8.05;;;4.95;;
73428;SDS011;61643;49.564;17.412;2023-04-01T23:03:19;7.15;;;3.70;;
73428;SDS011;61643;49.564;17.412;2023-04-01T23:05:52;5.82;;;3.50;;
73428;SDS011;61643;49.564;17.412;2023-04-01T23:11:17;4.13;;;2.60;;
73428;SDS011;61643;49.564;17.412;2023-04-01T23:14:05;6.68;;;2.80;;
73428;SDS011;61643;49.564;17.412;2023-04-01T23:16:54;4.68;;;2.67;;
73428;SDS011;61643;49.564;17.412;2023-04-01T23:19:57;4.05;;;2.22;;
73428;SDS011;61643;49.564;17.412;2023-04-01T23:22:43;3.75;;;2.15;;
73428;SDS011;61643;49.564;17.412;2023-04-01T23:25:43;6.78;;;3.00;;
73428;SDS011;61643;49.564;17.412;2023-04-01T23:28:23;4.13;;;2.42;;
73428;SDS011;61643;49.564;17.412;2023-04-01T23:31:06;8.55;;;2.83;;
73428;SDS011;61643;49.564;17.412;2023-04-01T23:33:55;6.65;;;2.92;;
73428;SDS011;61643;49.564;17.412;2023-04-01T23:36:22;5.45;;;3.00;;
73428;SDS011;61643;49.564;17.412;2023-04-01T23:38:49;5.70;;;3.20;;
73428;SDS011;61643;49.564;17.412;2023-04-01T23:41:25;7.22;;;3.33;;
73428;SDS011;61643;49.564;17.412;2023-04-01T23:43:56;5.72;;;2.97;;
73428;SDS011;61643;49.564;17.412;2023-04-01T23:46:26;5.43;;;2.90;;
73428;SDS011;61643;49.564;17.412;2023-04-01T23:48:54;6.47;;;3.15;;
73428;SDS011;61643;49.564;17.412;2023-04-01T23:51:36;4.60;;;2.92;;
73428;SDS011;61643;49.564;17.412;2023-04-01T23:54:11;5.70;;;3.08;;
73428;SDS011;61643;49.564;17.412;2023-04-01T23:56:51;3.65;;;2.40;;
73428;SDS011;61643;49.564;17.412;2023-04-01T23:59:19;3.92;;;2.78;;
